Time;durP1;ratioP1;P1;durP2;ratioP2;P2;SDS_P1;SDS_P2;PMS_P1;PMS_P2;Temp;Humidity;BMP_temperature;BMP_pressure;BME280_temperature;BME280_humidity;BME280_pressure;Samples;Min_cycle;Max_cycle;Signal;HPM_P1;HPM_P2
2023/06/05 00:00:06;;;;;;;8.80;2.40;;;;;;;;;;110006;1281;22338;-81
2023/06/05 00:02:59;;;;;;;8.60;2.80;;;;;;;;;;110069;1280;22870;-82
2023/06/05 00:05:27;;;;;;;10.00;3.40;;;;;;;;;;110252;1263;22796;-82
2023/06/05 00:07:54;;;;;;;9.30;3.00;;;;;;;;;;110079;1280;22774;-81
2023/06/05 00:10:21;;;;;;;10.20;3.30;;;;;;;;;;110035;1281;21993;-82
2023/06/05 00:12:49;;;;;;;11.60;2.90;;;;;;;;;;110071;1280;22847;-81
2023/06/05 00:15:17;;;;;;;10.10;3.40;;;;;;;;;;110096;1261;22796;-81
2023/06/05 00:17:45;;;;;;;11.60;3.20;;;;;;;;;;110039;1280;22939;-81
2023/06/05 00:20:12;;;;;;;9.50;3.20;;;;;;;;;;110056;1281;22096;-80
2023/06/05 00:22:40;;;;;;;11.20;3.70;;;;;;;;;;110026;1280;22095;-81
2023/06/05 00:25:11;;;;;;;13.00;3.30;;;;;;;;;;110130;1261;22105;-81
2023/06/05 00:27:40;;;;;;;10.60;3.70;;;;;;;;;;110024;1280;22112;-81
2023/06/05 00:30:18;;;;;;;12.40;3.60;;;;;;;;;;110061;1281;22151;-81
2023/06/05 00:32:45;;;;;;;8.90;3.10;;;;;;;;;;110086;1280;22097;-81
2023/06/05 00:35:16;;;;;;;10.30;3.60;;;;;;;;;;110078;1263;22131;-81
2023/06/05 00:37:47;;;;;;;9.90;3.20;;;;;;;;;;110001;1280;22008;-81
2023/06/05 00:40:14;;;;;;;10.40;3.00;;;;;;;;;;110083;1280;22850;-81
2023/06/05 00:42:42;;;;;;;9.40;2.90;;;;;;;;;;110058;1281;22114;-81
2023/06/05 00:45:09;;;;;;;12.70;3.30;;;;;;;;;;110255;1259;22094;-81
2023/06/05 00:47:37;;;;;;;14.60;3.30;;;;;;;;;;110108;1281;22102;-81
2023/06/05 00:50:11;;;;;;;10.10;3.00;;;;;;;;;;110064;1267;22117;-82
2023/06/05 00:52:42;;;;;;;11.60;3.10;;;;;;;;;;110016;1281;22141;-81
2023/06/05 00:55:13;;;;;;;10.70;2.90;;;;;;;;;;110286;1260;22121;-81
2023/06/05 00:57:44;;;;;;;11.70;2.80;;;;;;;;;;109994;1281;22076;-81
2023/06/05 01:00:16;;;;;;;9.70;2.70;;;;;;;;;;110016;1281;22212;-81
2023/06/05 01:02:56;;;;;;;10.30;3.00;;;;;;;;;;110085;1281;22127;-81
2023/06/05 01:05:26;;;;;;;11.10;3.40;;;;;;;;;;110208;1262;22133;-81
2023/06/05 01:07:55;;;;;;;11.30;3.60;;;;;;;;;;110026;1281;21965;-82
2023/06/05 01:10:24;;;;;;;12.30;3.80;;;;;;;;;;110084;1281;22205;-81
2023/06/05 01:12:59;;;;;;;20.90;4.80;;;;;;;;;;110122;1281;22155;-82
2023/06/05 01:15:29;;;;;;;23.20;4.90;;;;;;;;;;110088;1260;22122;-81
2023/06/05 01:17:59;;;;;;;15.60;4.10;;;;;;;;;;109925;1281;22358;-82
2023/06/05 01:20:34;;;;;;;17.20;4.30;;;;;;;;;;110009;1281;22184;-81
2023/06/05 01:23:04;;;;;;;13.90;4.00;;;;;;;;;;110039;1281;22308;-81
2023/06/05 01:33:44;;;;;;;19.30;4.20;;;;;;;;;;109747;1288;22039;-82
2023/06/05 01:36:14;;;;;;;11.70;3.40;;;;;;;;;;109802;1266;22148;-81
2023/06/05 01:39:05;;;;;;;12.80;3.10;;;;;;;;;;109775;1287;22625;-81
2023/06/05 01:46:08;;;;;;;18.70;3.60;;;;;;;;;;109416;1273;22152;-82
2023/06/05 01:48:42;;;;;;;13.40;3.70;;;;;;;;;;110030;1281;22084;-81
2023/06/05 01:58:16;;;;;;;16.10;4.70;;;;;;;;;;103836;1305;545870;-86
2023/06/05 02:00:46;;;;;;;20.20;4.60;;;;;;;;;;106364;1287;24191;-82
2023/06/05 02:03:15;;;;;;;14.10;4.00;;;;;;;;;;106122;1287;22487;-88
2023/06/05 02:05:42;;;;;;;13.80;4.10;;;;;;;;;;106105;1287;24262;-85
2023/06/05 02:08:13;;;;;;;16.00;4.20;;;;;;;;;;106319;1277;25240;-86
2023/06/05 02:10:45;;;;;;;15.80;4.50;;;;;;;;;;105543;1280;5448095;-82
2023/06/05 02:13:16;;;;;;;16.80;4.20;;;;;;;;;;106527;1285;22527;-87
2023/06/05 02:15:51;;;;;;;15.70;4.40;;;;;;;;;;106264;1268;25118;-84
2023/06/05 02:18:27;;;;;;;14.20;4.50;;;;;;;;;;106288;1277;22630;-82
2023/06/05 02:20:57;;;;;;;15.80;4.20;;;;;;;;;;106452;1282;22527;-86
2023/06/05 02:23:24;;;;;;;17.30;4.60;;;;;;;;;;109928;1285;22216;-82
2023/06/05 02:25:52;;;;;;;19.00;4.60;;;;;;;;;;110425;1272;22358;-83
2023/06/05 02:28:29;;;;;;;16.10;4.40;;;;;;;;;;110482;1261;23067;-81
2023/06/05 02:30:56;;;;;;;14.30;4.10;;;;;;;;;;110296;1273;22218;-81
2023/06/05 02:33:23;;;;;;;18.30;4.20;;;;;;;;;;110464;1276;22952;-81
2023/06/05 02:35:51;;;;;;;13.00;4.00;;;;;;;;;;110441;1272;22240;-82
2023/06/05 02:38:18;;;;;;;20.40;4.10;;;;;;;;;;110338;1266;23011;-81
2023/06/05 02:40:45;;;;;;;16.10;4.00;;;;;;;;;;110627;1276;22129;-82
2023/06/05 02:43:13;;;;;;;16.80;4.00;;;;;;;;;;110334;1276;22166;-81
2023/06/05 02:45:40;;;;;;;13.00;3.40;;;;;;;;;;110481;1276;22192;-81
2023/06/05 02:48:07;;;;;;;11.80;3.50;;;;;;;;;;110491;1254;22161;-81
2023/06/05 02:50:34;;;;;;;16.70;4.00;;;;;;;;;;110464;1277;22951;-81
2023/06/05 02:53:03;;;;;;;14.40;3.70;;;;;;;;;;110460;1278;22086;-81
2023/06/05 02:55:33;;;;;;;12.30;3.80;;;;;;;;;;110352;1277;22097;-81
2023/06/05 02:58:03;;;;;;;11.60;3.60;;;;;;;;;;110352;1278;22379;-81
2023/06/05 03:00:37;;;;;;;12.70;3.80;;;;;;;;;;110536;1260;22889;-81
2023/06/05 03:03:03;;;;;;;16.00;4.20;;;;;;;;;;110311;1277;22106;-81
2023/06/05 03:05:31;;;;;;;11.30;3.60;;;;;;;;;;110603;1276;22607;-81
2023/06/05 03:08:03;;;;;;;12.00;3.50;;;;;;;;;;110330;1277;22120;-81
2023/06/05 03:10:30;;;;;;;12.30;3.50;;;;;;;;;;110370;1259;22102;-81
2023/06/05 03:12:57;;;;;;;10.30;3.30;;;;;;;;;;110272;1278;22058;-82
2023/06/05 03:15:24;;;;;;;11.70;3.50;;;;;;;;;;110337;1275;22297;-81
2023/06/05 03:17:51;;;;;;;10.60;3.70;;;;;;;;;;110325;1269;22100;-82
2023/06/05 03:20:19;;;;;;;9.60;3.40;;;;;;;;;;110302;1266;22587;-81
2023/06/05 03:22:46;;;;;;;10.90;3.80;;;;;;;;;;110214;1278;22844;-81
2023/06/05 03:25:13;;;;;;;12.40;3.80;;;;;;;;;;110302;1277;22345;-81
2023/06/05 03:27:41;;;;;;;11.10;3.50;;;;;;;;;;110438;1277;22085;-81
2023/06/05 03:30:08;;;;;;;13.30;4.40;;;;;;;;;;110587;1259;22136;-81
2023/06/05 03:32:39;;;;;;;15.30;4.50;;;;;;;;;;110268;1278;22113;-81
2023/06/05 03:35:07;;;;;;;14.90;4.10;;;;;;;;;;110439;1277;22789;-81
2023/06/05 03:37:36;;;;;;;13.80;4.40;;;;;;;;;;110426;1277;22122;-81
2023/06/05 03:40:04;;;;;;;14.00;4.20;;;;;;;;;;110589;1260;22209;-82
2023/06/05 03:42:30;;;;;;;10.00;3.60;;;;;;;;;;110309;1277;22811;-81
2023/06/05 03:44:57;;;;;;;11.00;3.10;;;;;;;;;;110441;1277;22131;-81
2023/06/05 03:47:24;;;;;;;9.60;3.10;;;;;;;;;;110440;1277;22124;-81
2023/06/05 03:49:52;;;;;;;8.80;3.80;;;;;;;;;;110453;1259;22899;-81
2023/06/05 03:52:24;;;;;;;11.10;3.50;;;;;;;;;;110203;1278;22106;-81
2023/06/05 03:54:53;;;;;;;11.20;3.50;;;;;;;;;;110332;1278;22167;-81
2023/06/05 03:57:20;;;;;;;14.50;4.10;;;;;;;;;;110306;1278;22300;-81
2023/06/05 03:59:48;;;;;;;10.20;4.20;;;;;;;;;;110419;1254;22110;-81
2023/06/05 04:02:15;;;;;;;13.80;3.80;;;;;;;;;;110184;1278;22114;-81
2023/06/05 04:04:41;;;;;;;12.60;4.00;;;;;;;;;;110443;1270;22280;-81
2023/06/05 04:07:08;;;;;;;15.30;3.60;;;;;;;;;;110309;1278;22843;-81
2023/06/05 04:09:35;;;;;;;13.90;4.20;;;;;;;;;;110164;1254;23179;-81
2023/06/05 04:12:03;;;;;;;13.00;4.30;;;;;;;;;;110196;1267;22328;-82
2023/06/05 04:14:30;;;;;;;10.00;3.90;;;;;;;;;;110437;1278;22309;-80
2023/06/05 04:16:57;;;;;;;10.50;3.90;;;;;;;;;;110316;1278;22063;-80
2023/06/05 04:19:25;;;;;;;15.80;5.00;;;;;;;;;;110212;1278;23014;-81
2023/06/05 04:21:53;;;;;;;13.40;4.00;;;;;;;;;;110467;1260;22387;-81
2023/06/05 04:24:20;;;;;;;13.70;3.90;;;;;;;;;;110295;1277;22182;-80
2023/06/05 04:26:47;;;;;;;15.70;4.30;;;;;;;;;;110413;1278;22870;-81
2023/06/05 04:29:16;;;;;;;17.60;3.90;;;;;;;;;;110431;1278;22015;-81
2023/06/05 04:31:43;;;;;;;11.10;3.90;;;;;;;;;;110527;1260;22169;-80
2023/06/05 04:34:10;;;;;;;12.50;3.90;;;;;;;;;;110178;1277;22160;-81
2023/06/05 04:36:38;;;;;;;12.30;4.10;;;;;;;;;;110401;1278;22918;-81
2023/06/05 04:39:06;;;;;;;13.40;4.40;;;;;;;;;;110425;1278;22100;-81
2023/06/05 04:41:34;;;;;;;17.00;4.20;;;;;;;;;;110417;1261;22827;-81
2023/06/05 04:44:01;;;;;;;20.40;8.80;;;;;;;;;;110424;1278;22303;-80
2023/06/05 04:46:28;;;;;;;20.30;7.80;;;;;;;;;;110256;1277;22177;-80
2023/06/05 04:48:57;;;;;;;28.10;16.90;;;;;;;;;;110335;1277;22404;-80
2023/06/05 04:51:24;;;;;;;14.70;6.80;;;;;;;;;;110333;1264;22129;-80
2023/06/05 04:53:52;;;;;;;16.30;6.30;;;;;;;;;;110166;1278;23068;-81
2023/06/05 04:56:21;;;;;;;28.90;13.60;;;;;;;;;;110152;1278;23250;-81
2023/06/05 04:58:50;;;;;;;14.70;8.00;;;;;;;;;;110209;1278;22404;-81
2023/06/05 05:01:17;;;;;;;14.80;6.20;;;;;;;;;;110208;1262;22130;-81
2023/06/05 05:03:45;;;;;;;29.20;13.10;;;;;;;;;;110385;1278;23159;-82
2023/06/05 05:06:16;;;;;;;23.20;9.10;;;;;;;;;;110220;1278;22109;-81
2023/06/05 05:08:45;;;;;;;40.70;15.20;;;;;;;;;;110175;1278;22180;-81
2023/06/05 05:11:12;;;;;;;34.20;9.10;;;;;;;;;;110392;1260;22133;-81
2023/06/05 05:13:40;;;;;;;25.60;6.50;;;;;;;;;;110156;1278;22309;-80
2023/06/05 05:16:10;;;;;;;16.50;4.40;;;;;;;;;;110133;1278;22114;-80
2023/06/05 05:18:41;;;;;;;20.10;4.40;;;;;;;;;;110168;1278;22738;-80
2023/06/05 05:21:07;;;;;;;18.40;3.80;;;;;;;;;;110296;1256;22176;-80
2023/06/05 05:23:35;;;;;;;16.40;4.40;;;;;;;;;;110210;1278;22626;-80
2023/06/05 05:26:02;;;;;;;21.20;4.10;;;;;;;;;;110156;1278;22109;-79
2023/06/05 05:28:28;;;;;;;23.30;4.20;;;;;;;;;;110207;1278;22132;-79
2023/06/05 05:30:56;;;;;;;16.80;3.80;;;;;;;;;;110272;1276;22916;-80
2023/06/05 05:33:26;;;;;;;16.20;3.60;;;;;;;;;;110255;1267;22792;-80
2023/06/05 05:35:53;;;;;;;12.80;3.50;;;;;;;;;;110133;1278;22746;-80
2023/06/05 05:38:20;;;;;;;17.60;3.50;;;;;;;;;;110302;1278;23074;-80
2023/06/05 05:40:47;;;;;;;22.00;3.40;;;;;;;;;;110292;1278;22146;-80
2023/06/05 05:43:29;;;;;;;18.60;3.70;;;;;;;;;;110457;1263;22368;-81
2023/06/05 05:45:55;;;;;;;19.80;3.50;;;;;;;;;;110179;1273;21704;-81
2023/06/05 05:48:22;;;;;;;18.10;3.30;;;;;;;;;;110298;1278;22871;-80
2023/06/05 05:50:49;;;;;;;17.80;3.60;;;;;;;;;;110243;1278;22131;-80
2023/06/05 05:53:16;;;;;;;17.70;3.40;;;;;;;;;;110470;1259;22093;-82
2023/06/05 05:55:52;;;;;;;12.10;3.30;;;;;;;;;;110313;1278;22476;-81
2023/06/05 05:58:19;;;;;;;19.90;3.30;;;;;;;;;;110213;1278;22343;-80
2023/06/05 06:00:47;;;;;;;23.50;4.00;;;;;;;;;;110206;1279;22831;-80
2023/06/05 06:03:21;;;;;;;20.60;3.40;;;;;;;;;;110370;1256;22169;-84
2023/06/05 06:05:48;;;;;;;19.30;3.50;;;;;;;;;;110168;1279;22304;-80
2023/06/05 06:08:22;;;;;;;10.10;3.20;;;;;;;;;;110223;1279;22812;-80
2023/06/05 06:10:48;;;;;;;14.50;3.70;;;;;;;;;;110185;1279;22825;-81
2023/06/05 06:13:15;;;;;;;17.40;3.00;;;;;;;;;;110487;1258;22146;-80
2023/06/05 06:15:42;;;;;;;12.50;3.30;;;;;;;;;;110206;1278;22100;-80
2023/06/05 06:18:09;;;;;;;12.70;3.40;;;;;;;;;;110157;1279;22076;-80
2023/06/05 06:20:36;;;;;;;16.60;4.10;;;;;;;;;;110276;1279;22117;-79
2023/06/05 06:23:03;;;;;;;14.50;3.30;;;;;;;;;;110442;1256;22229;-79
2023/06/05 06:25:31;;;;;;;12.30;2.90;;;;;;;;;;110241;1278;21967;-79
2023/06/05 06:28:01;;;;;;;11.50;2.80;;;;;;;;;;110224;1276;22262;-79
2023/06/05 06:30:28;;;;;;;11.60;3.20;;;;;;;;;;110323;1278;22104;-80
2023/06/05 06:32:58;;;;;;;9.70;3.10;;;;;;;;;;110310;1256;22112;-79
2023/06/05 06:35:25;;;;;;;11.40;3.10;;;;;;;;;;110202;1279;22105;-80
2023/06/05 06:37:56;;;;;;;17.00;2.90;;;;;;;;;;110140;1279;22095;-81
2023/06/05 06:40:23;;;;;;;9.50;3.20;;;;;;;;;;110302;1278;22109;-79
2023/06/05 06:42:53;;;;;;;8.80;2.70;;;;;;;;;;110230;1255;22166;-78
2023/06/05 06:45:40;;;;;;;13.10;3.10;;;;;;;;;;110266;1278;22117;-79
2023/06/05 06:48:06;;;;;;;10.70;3.40;;;;;;;;;;110298;1279;22183;-79
2023/06/05 06:50:33;;;;;;;12.50;2.70;;;;;;;;;;110206;1279;22173;-79
2023/06/05 06:52:59;;;;;;;10.70;3.30;;;;;;;;;;110193;1257;22182;-79
2023/06/05 06:55:26;;;;;;;9.80;3.20;;;;;;;;;;110150;1279;22771;-81
2023/06/05 06:57:53;;;;;;;9.20;3.10;;;;;;;;;;110146;1279;23098;-79
2023/06/05 07:00:20;;;;;;;8.20;3.10;;;;;;;;;;110173;1279;22154;-79
2023/06/05 07:02:47;;;;;;;9.30;2.70;;;;;;;;;;110160;1279;22163;-81
2023/06/05 07:05:16;;;;;;;9.40;3.30;;;;;;;;;;110672;1257;22198;-79
2023/06/05 07:07:43;;;;;;;9.00;3.00;;;;;;;;;;110270;1279;22102;-79
2023/06/05 07:10:10;;;;;;;7.60;2.90;;;;;;;;;;110300;1279;22276;-78
2023/06/05 07:12:36;;;;;;;10.20;3.10;;;;;;;;;;110188;1279;22116;-79
2023/06/05 07:15:04;;;;;;;7.60;2.70;;;;;;;;;;110486;1256;22115;-79
2023/06/05 07:17:31;;;;;;;9.30;2.60;;;;;;;;;;110292;1279;22136;-80
2023/06/05 07:19:57;;;;;;;8.00;2.70;;;;;;;;;;110307;1279;22087;-79
2023/06/05 07:22:26;;;;;;;7.20;3.00;;;;;;;;;;110151;1279;22109;-80
2023/06/05 07:24:53;;;;;;;7.60;3.10;;;;;;;;;;110217;1257;22114;-79
2023/06/05 07:27:20;;;;;;;10.80;2.90;;;;;;;;;;110286;1279;22135;-79
2023/06/05 07:29:48;;;;;;;10.00;2.80;;;;;;;;;;110187;1279;22937;-81
2023/06/05 07:32:15;;;;;;;10.00;3.00;;;;;;;;;;110294;1279;22102;-79
2023/06/05 07:34:42;;;;;;;8.90;3.00;;;;;;;;;;110408;1256;22110;-79
2023/06/05 07:37:10;;;;;;;7.20;2.60;;;;;;;;;;110306;1279;22775;-79
2023/06/05 07:39:36;;;;;;;12.10;3.00;;;;;;;;;;110285;1279;22131;-79
2023/06/05 07:42:05;;;;;;;8.80;2.40;;;;;;;;;;110182;1279;22105;-78
2023/06/05 07:44:32;;;;;;;7.60;2.80;;;;;;;;;;110372;1256;22278;-78
2023/06/05 07:46:59;;;;;;;7.50;2.80;;;;;;;;;;110271;1279;22173;-80
2023/06/05 07:49:30;;;;;;;7.50;2.70;;;;;;;;;;110273;1279;21904;-79
2023/06/05 07:51:57;;;;;;;8.40;2.80;;;;;;;;;;110271;1279;22187;-79
2023/06/05 07:54:26;;;;;;;12.90;2.80;;;;;;;;;;110278;1257;22107;-79
2023/06/05 07:56:57;;;;;;;7.50;2.80;;;;;;;;;;110231;1279;22810;-78
2023/06/05 07:59:27;;;;;;;10.70;2.90;;;;;;;;;;110267;1279;22086;-79
2023/06/05 08:01:57;;;;;;;10.70;3.00;;;;;;;;;;110239;1279;22160;-78
2023/06/05 08:04:25;;;;;;;7.50;2.60;;;;;;;;;;110282;1257;22170;-78
2023/06/05 08:06:53;;;;;;;11.50;2.90;;;;;;;;;;110235;1279;22132;-78
2023/06/05 08:09:20;;;;;;;10.00;3.30;;;;;;;;;;110233;1279;22135;-80
2023/06/05 08:11:48;;;;;;;13.00;3.80;;;;;;;;;;110238;1279;22757;-80
2023/06/05 08:14:16;;;;;;;10.10;3.50;;;;;;;;;;110220;1279;22832;-78
2023/06/05 08:16:43;;;;;;;12.40;3.50;;;;;;;;;;110581;1261;22132;-80
2023/06/05 08:19:11;;;;;;;12.50;3.10;;;;;;;;;;110179;1279;22048;-78
2023/06/05 08:21:38;;;;;;;11.90;3.10;;;;;;;;;;110142;1279;22732;-80
2023/06/05 08:24:06;;;;;;;12.40;3.00;;;;;;;;;;110144;1279;22392;-82
2023/06/05 08:26:33;;;;;;;11.40;2.90;;;;;;;;;;110508;1257;22168;-78
2023/06/05 08:29:02;;;;;;;11.10;3.20;;;;;;;;;;110236;1279;22148;-78
2023/06/05 08:31:33;;;;;;;11.50;3.00;;;;;;;;;;110230;1279;22169;-79
2023/06/05 08:34:01;;;;;;;10.90;3.10;;;;;;;;;;110160;1279;22116;-78
2023/06/05 08:36:32;;;;;;;9.60;2.90;;;;;;;;;;110415;1256;22943;-80
2023/06/05 08:39:00;;;;;;;9.20;3.00;;;;;;;;;;110225;1279;22124;-79
2023/06/05 08:41:30;;;;;;;9.40;2.90;;;;;;;;;;110241;1279;22134;-79
2023/06/05 08:43:58;;;;;;;12.00;2.50;;;;;;;;;;110248;1279;22213;-79
2023/06/05 08:46:27;;;;;;;12.10;3.10;;;;;;;;;;110328;1262;22568;-79
2023/06/05 08:48:56;;;;;;;9.10;2.60;;;;;;;;;;110253;1279;22860;-79
2023/06/05 08:51:24;;;;;;;6.90;2.60;;;;;;;;;;110131;1280;22782;-79
2023/06/05 08:54:12;;;;;;;9.60;2.60;;;;;;;;;;110165;1280;22152;-83
2023/06/05 08:56:46;;;;;;;8.30;2.40;;;;;;;;;;110494;1258;22223;-79
2023/06/05 08:59:16;;;;;;;7.70;2.70;;;;;;;;;;110425;1278;22829;-85
2023/06/05 09:01:47;;;;;;;8.90;3.00;;;;;;;;;;110344;1278;22223;-80
2023/06/05 09:04:17;;;;;;;9.00;2.90;;;;;;;;;;110331;1278;22195;-78
2023/06/05 09:06:51;;;;;;;9.40;2.50;;;;;;;;;;110616;1256;22118;-79
2023/06/05 09:09:22;;;;;;;7.40;2.60;;;;;;;;;;110328;1278;22093;-82
2023/06/05 09:12:05;;;;;;;7.70;2.40;;;;;;;;;;110338;1278;22369;-78
2023/06/05 09:14:35;;;;;;;11.00;2.50;;;;;;;;;;110190;1277;22079;-78
2023/06/05 09:17:06;;;;;;;6.60;2.40;;;;;;;;;;110598;1255;22202;-80
2023/06/05 09:19:40;;;;;;;5.70;2.20;;;;;;;;;;110308;1278;22157;-78
2023/06/05 09:22:10;;;;;;;9.80;2.80;;;;;;;;;;110324;1273;22160;-79
2023/06/05 09:24:40;;;;;;;7.60;2.40;;;;;;;;;;110186;1278;22826;-81
2023/06/05 09:27:10;;;;;;;7.40;2.40;;;;;;;;;;110325;1260;22118;-79
2023/06/05 09:29:43;;;;;;;7.90;2.40;;;;;;;;;;110316;1278;21735;-78
2023/06/05 09:32:18;;;;;;;8.20;2.30;;;;;;;;;;110438;1278;22122;-78
2023/06/05 09:34:59;;;;;;;8.70;2.30;;;;;;;;;;110438;1278;22122;-78
2023/06/05 09:37:38;;;;;;;8.90;2.40;;;;;;;;;;110492;1259;22595;-78
2023/06/05 09:40:14;;;;;;;8.20;2.50;;;;;;;;;;110357;1278;22114;-78
2023/06/05 09:42:43;;;;;;;6.40;2.00;;;;;;;;;;110428;1278;22952;-80
2023/06/05 09:45:13;;;;;;;9.10;2.50;;;;;;;;;;110333;1278;22197;-78
2023/06/05 09:47:41;;;;;;;10.10;2.50;;;;;;;;;;110547;1256;22681;-79
2023/06/05 09:56:35;;;;;;;9.00;2.20;;;;;;;;;;104084;1292;544746;-86
2023/06/05 09:59:03;;;;;;;10.80;2.30;;;;;;;;;;106766;1277;22680;-84
2023/06/05 10:01:46;;;;;;;11.30;2.40;;;;;;;;;;106851;1277;24200;-80
2023/06/05 10:04:15;;;;;;;10.80;2.30;;;;;;;;;;106862;1277;24299;-80
2023/06/05 10:06:42;;;;;;;8.40;2.40;;;;;;;;;;106776;1278;22960;-85
2023/06/05 10:09:15;;;;;;;10.20;2.60;;;;;;;;;;104337;1276;3202270;-90
2023/06/05 10:11:48;;;;;;;6.90;1.70;;;;;;;;;;107192;1272;22992;-81
2023/06/05 10:14:19;;;;;;;10.90;1.90;;;;;;;;;;107326;1272;22573;-84
2023/06/05 10:16:52;;;;;;;9.00;1.90;;;;;;;;;;107429;1255;25217;-84
2023/06/05 10:19:20;;;;;;;8.50;2.00;;;;;;;;;;107446;1271;25403;-78
2023/06/05 10:21:50;;;;;;;5.60;2.10;;;;;;;;;;107402;1271;22627;-85
2023/06/05 10:24:19;;;;;;;9.90;2.20;;;;;;;;;;107281;1271;22544;-79
2023/06/05 10:26:56;;;;;;;5.70;2.10;;;;;;;;;;107245;1254;25223;-85
2023/06/05 10:29:42;;;;;;;5.30;1.90;;;;;;;;;;107417;1272;22515;-79
2023/06/05 10:32:32;;;;;;;5.60;2.10;;;;;;;;;;107402;1272;24246;-80
2023/06/05 10:35:22;;;;;;;8.30;2.10;;;;;;;;;;107171;1272;25364;-80
2023/06/05 10:37:58;;;;;;;9.20;2.40;;;;;;;;;;107407;1253;22487;-79
2023/06/05 10:40:25;;;;;;;6.40;2.20;;;;;;;;;;107461;1271;22523;-86
2023/06/05 10:43:12;;;;;;;5.90;2.10;;;;;;;;;;107297;1271;24415;-79
2023/06/05 10:45:39;;;;;;;5.50;2.10;;;;;;;;;;107409;1271;22517;-80
2023/06/05 10:48:08;;;;;;;4.80;1.90;;;;;;;;;;107331;1255;22529;-80
2023/06/05 10:50:35;;;;;;;5.00;1.80;;;;;;;;;;107355;1272;25262;-83
2023/06/05 10:53:02;;;;;;;8.90;2.30;;;;;;;;;;107252;1273;24211;-78
2023/06/05 10:55:41;;;;;;;8.90;2.10;;;;;;;;;;107124;1273;22536;-86
2023/06/05 10:58:10;;;;;;;7.00;2.10;;;;;;;;;;107167;1254;26895;-81
2023/06/05 11:00:57;;;;;;;8.20;2.30;;;;;;;;;;107368;1272;24167;-86
2023/06/05 11:03:42;;;;;;;6.20;2.40;;;;;;;;;;107213;1272;22520;-84
2023/06/05 11:06:28;;;;;;;5.20;2.00;;;;;;;;;;107222;1273;22541;-81
2023/06/05 11:09:14;;;;;;;5.60;2.10;;;;;;;;;;107193;1254;22730;-86
2023/06/05 11:12:00;;;;;;;8.80;2.20;;;;;;;;;;106977;1273;25278;-88
2023/06/05 11:14:43;;;;;;;6.10;2.20;;;;;;;;;;107230;1273;22634;-86
2023/06/05 11:17:31;;;;;;;7.30;1.90;;;;;;;;;;107230;1273;25383;-80
2023/06/05 11:19:59;;;;;;;7.40;2.10;;;;;;;;;;107175;1273;25091;-83
2023/06/05 11:22:26;;;;;;;6.20;2.00;;;;;;;;;;107255;1273;24251;-83
2023/06/05 11:25:12;;;;;;;5.10;2.10;;;;;;;;;;107207;1273;25339;-80
2023/06/05 11:27:47;;;;;;;7.40;2.20;;;;;;;;;;107186;1255;22596;-85
2023/06/05 11:30:15;;;;;;;10.40;2.40;;;;;;;;;;107245;1273;22527;-83
2023/06/05 11:32:43;;;;;;;6.20;2.10;;;;;;;;;;107103;1273;24187;-79
2023/06/05 11:35:13;;;;;;;6.40;2.50;;;;;;;;;;107139;1273;24227;-78
2023/06/05 11:37:39;;;;;;;6.40;2.20;;;;;;;;;;107162;1251;22517;-81
2023/06/05 11:40:10;;;;;;;6.00;2.10;;;;;;;;;;107167;1273;26499;-79
2023/06/05 11:42:40;;;;;;;5.10;2.30;;;;;;;;;;107089;1273;22716;-84
2023/06/05 11:45:14;;;;;;;7.10;1.90;;;;;;;;;;107122;1273;22520;-85
2023/06/05 11:47:41;;;;;;;7.20;2.10;;;;;;;;;;107156;1267;22531;-84
2023/06/05 11:50:08;;;;;;;6.60;2.20;;;;;;;;;;106948;1272;22594;-78
2023/06/05 11:52:36;;;;;;;6.40;2.20;;;;;;;;;;107286;1272;22520;-78
2023/06/05 11:55:19;;;;;;;10.60;2.20;;;;;;;;;;107270;1272;23586;-83
2023/06/05 11:57:49;;;;;;;6.80;1.90;;;;;;;;;;107160;1251;24650;-82
2023/06/05 12:00:22;;;;;;;5.60;2.40;;;;;;;;;;107152;1272;22521;-83
2023/06/05 12:02:49;;;;;;;6.60;2.50;;;;;;;;;;107235;1272;25349;-78
2023/06/05 12:05:15;;;;;;;6.00;2.10;;;;;;;;;;107242;1272;22637;-78
2023/06/05 12:07:42;;;;;;;6.10;1.90;;;;;;;;;;107248;1272;22524;-84
2023/06/05 12:10:10;;;;;;;6.60;2.10;;;;;;;;;;107141;1273;26484;-82
2023/06/05 12:12:52;;;;;;;4.60;2.00;;;;;;;;;;107260;1273;25399;-83
2023/06/05 12:15:20;;;;;;;7.60;2.20;;;;;;;;;;107164;1273;24345;-80
2023/06/05 12:17:50;;;;;;;5.60;2.00;;;;;;;;;;107166;1273;22530;-82
2023/06/05 12:20:18;;;;;;;6.60;2.10;;;;;;;;;;107154;1257;24190;-83
2023/06/05 12:22:44;;;;;;;14.50;9.00;;;;;;;;;;107244;1272;22633;-83
2023/06/05 12:25:22;;;;;;;9.00;3.10;;;;;;;;;;107184;1272;24161;-80
2023/06/05 12:27:49;;;;;;;7.70;3.60;;;;;;;;;;107288;1272;22532;-78
2023/06/05 12:30:16;;;;;;;9.70;2.60;;;;;;;;;;107188;1255;24238;-81
2023/06/05 12:32:43;;;;;;;5.90;1.80;;;;;;;;;;107076;1273;22611;-82
2023/06/05 12:35:20;;;;;;;6.40;2.30;;;;;;;;;;107065;1273;22520;-80
2023/06/05 12:37:47;;;;;;;8.00;2.30;;;;;;;;;;107172;1250;22527;-85
2023/06/05 12:40:20;;;;;;;7.00;2.00;;;;;;;;;;107234;1263;25217;-77
2023/06/05 12:42:47;;;;;;;8.70;2.00;;;;;;;;;;107260;1250;22519;-83
2023/06/05 12:45:15;;;;;;;6.90;2.10;;;;;;;;;;107168;1272;22513;-82
2023/06/05 12:47:42;;;;;;;7.00;2.00;;;;;;;;;;107248;1272;22616;-84
2023/06/05 12:50:13;;;;;;;9.10;2.30;;;;;;;;;;107042;1257;22642;-78
2023/06/05 12:52:40;;;;;;;7.80;2.30;;;;;;;;;;107157;1273;25278;-81
2023/06/05 12:55:08;;;;;;;6.00;2.10;;;;;;;;;;107175;1273;22539;-82
2023/06/05 12:57:35;;;;;;;6.20;2.50;;;;;;;;;;107153;1273;22746;-83
2023/06/05 13:00:21;;;;;;;7.10;2.10;;;;;;;;;;107181;1272;22519;-85
2023/06/05 13:02:50;;;;;;;6.80;2.00;;;;;;;;;;107218;1272;22600;-85
2023/06/05 13:05:18;;;;;;;7.00;2.20;;;;;;;;;;110849;1272;22111;-77
2023/06/05 13:07:44;;;;;;;6.30;2.40;;;;;;;;;;110787;1272;22107;-76
2023/06/05 13:10:11;;;;;;;6.20;2.20;;;;;;;;;;110672;1253;22139;-76
2023/06/05 13:12:38;;;;;;;5.90;2.00;;;;;;;;;;110643;1273;22180;-75
2023/06/05 13:15:06;;;;;;;5.10;2.20;;;;;;;;;;110695;1273;22099;-76
2023/06/05 13:17:35;;;;;;;10.00;2.70;;;;;;;;;;110729;1273;22756;-76
2023/06/05 13:20:06;;;;;;;5.70;2.20;;;;;;;;;;110618;1255;22372;-76
2023/06/05 13:22:33;;;;;;;6.00;2.10;;;;;;;;;;110725;1273;22360;-76
2023/06/05 13:25:00;;;;;;;7.30;2.50;;;;;;;;;;110758;1273;22123;-75
2023/06/05 13:27:27;;;;;;;8.10;2.30;;;;;;;;;;110735;1273;22198;-75
2023/06/05 13:29:54;;;;;;;6.90;2.20;;;;;;;;;;110820;1250;22159;-77
2023/06/05 13:32:21;;;;;;;6.00;2.30;;;;;;;;;;110752;1273;22104;-76
2023/06/05 13:34:48;;;;;;;5.50;2.00;;;;;;;;;;110638;1273;23204;-76
2023/06/05 13:37:15;;;;;;;6.60;2.20;;;;;;;;;;110712;1266;22111;-77
2023/06/05 13:39:42;;;;;;;7.90;2.50;;;;;;;;;;110646;1273;22363;-77
2023/06/05 13:42:08;;;;;;;11.30;2.30;;;;;;;;;;110603;1256;22579;-76
2023/06/05 13:44:35;;;;;;;6.10;2.00;;;;;;;;;;110758;1273;22135;-76
2023/06/05 13:47:03;;;;;;;6.80;2.20;;;;;;;;;;110733;1273;22120;-76
2023/06/05 13:49:30;;;;;;;7.40;2.50;;;;;;;;;;110754;1273;22431;-76
2023/06/05 13:51:57;;;;;;;8.40;2.40;;;;;;;;;;111092;1256;22406;-77
2023/06/05 13:54:24;;;;;;;5.60;2.30;;;;;;;;;;110605;1275;22819;-76
2023/06/05 13:56:54;;;;;;;6.70;2.20;;;;;;;;;;110638;1275;22909;-77
2023/06/05 13:59:21;;;;;;;8.50;2.20;;;;;;;;;;110607;1275;22236;-76
2023/06/05 14:01:48;;;;;;;7.00;2.10;;;;;;;;;;110863;1256;22108;-77
2023/06/05 14:04:15;;;;;;;5.90;2.20;;;;;;;;;;110684;1274;22144;-77
2023/06/05 14:06:42;;;;;;;7.80;2.20;;;;;;;;;;110650;1274;22116;-76
2023/06/05 14:09:11;;;;;;;6.50;2.40;;;;;;;;;;110641;1274;22421;-76
2023/06/05 14:11:43;;;;;;;7.20;2.30;;;;;;;;;;110823;1259;22127;-76
2023/06/05 14:14:10;;;;;;;7.70;2.70;;;;;;;;;;110603;1275;22853;-77
2023/06/05 14:16:37;;;;;;;6.40;2.50;;;;;;;;;;110583;1275;22954;-76
2023/06/05 14:19:04;;;;;;;6.20;2.20;;;;;;;;;;110620;1275;22175;-77
2023/06/05 14:21:31;;;;;;;7.00;2.30;;;;;;;;;;110708;1258;22185;-77
2023/06/05 14:24:00;;;;;;;6.90;2.50;;;;;;;;;;110617;1274;22079;-76
2023/06/05 14:26:28;;;;;;;6.00;2.20;;;;;;;;;;110695;1274;22078;-76
2023/06/05 14:28:54;;;;;;;7.70;2.30;;;;;;;;;;110612;1274;22129;-76
2023/06/05 14:31:25;;;;;;;6.30;2.30;;;;;;;;;;110666;1256;22131;-78
2023/06/05 14:33:51;;;;;;;7.40;2.30;;;;;;;;;;110580;1275;22069;-77
2023/06/05 14:36:18;;;;;;;6.30;2.40;;;;;;;;;;110562;1275;22134;-76
2023/06/05 14:38:45;;;;;;;6.80;2.20;;;;;;;;;;110607;1275;22305;-76
2023/06/05 14:41:12;;;;;;;7.00;2.30;;;;;;;;;;110638;1252;22773;-77
2023/06/05 14:43:39;;;;;;;6.70;2.40;;;;;;;;;;110627;1274;22469;-76
2023/06/05 14:46:05;;;;;;;7.30;2.50;;;;;;;;;;110617;1274;22088;-76
2023/06/05 14:48:32;;;;;;;7.50;2.20;;;;;;;;;;110618;1274;22862;-76
2023/06/05 14:50:59;;;;;;;6.50;2.40;;;;;;;;;;110620;1274;22373;-76
2023/06/05 14:53:27;;;;;;;5.30;2.10;;;;;;;;;;110850;1256;22099;-76
2023/06/05 14:55:53;;;;;;;6.60;2.20;;;;;;;;;;110627;1274;22124;-76
2023/06/05 14:58:20;;;;;;;7.20;2.50;;;;;;;;;;110660;1256;22107;-76
2023/06/05 15:00:48;;;;;;;8.80;2.40;;;;;;;;;;110626;1274;22144;-76
2023/06/05 15:03:15;;;;;;;6.50;2.30;;;;;;;;;;111253;1254;22222;-78